Time;durP1;ratioP1;P1;durP2;ratioP2;P2;SDS_P1;SDS_P2;PMS_P1;PMS_P2;Temp;Humidity;BMP_temperature;BMP_pressure;BME280_temperature;BME280_humidity;BME280_pressure;Samples;Min_cycle;Max_cycle;Signal;HPM_P1;HPM_P2
2022/12/01 00:02:21;;;;;;;0.00;0.00;;;;;;;;;;5064391;28;20033;-81
2022/12/01 00:04:48;;;;;;;0.00;0.00;;;;;;;;;;5035873;28;20184;-79
2022/12/01 00:07:30;;;;;;;0.00;0.00;;;;;;;;;;5033979;28;20033;-81
2022/12/01 00:12:42;;;;;;;0.00;0.00;;;;;;;;;;5046179;28;20515;-81
2022/12/01 00:15:10;;;;;;;0.00;0.00;;;;;;;;;;5021482;28;20462;-82
2022/12/01 00:17:36;;;;;;;0.00;0.00;;;;;;;;;;5047955;28;20081;-81
2022/12/01 00:20:03;;;;;;;0.00;0.00;;;;;;;;;;5019033;28;20424;-80
2022/12/01 00:22:29;;;;;;;0.00;0.00;;;;;;;;;;5054456;28;20426;-79
2022/12/01 00:24:56;;;;;;;0.00;0.00;;;;;;;;;;5047009;28;20103;-76
2022/12/01 00:27:22;;;;;;;0.00;0.00;;;;;;;;;;5051949;28;20025;-77
2022/12/01 00:29:48;;;;;;;0.00;0.00;;;;;;;;;;5040850;28;20038;-75
2022/12/01 00:32:15;;;;;;;0.00;0.00;;;;;;;;;;5030060;28;20026;-81
2022/12/01 00:34:41;;;;;;;0.00;0.00;;;;;;;;;;5054520;28;20382;-82
2022/12/01 00:37:07;;;;;;;0.00;0.00;;;;;;;;;;5056954;28;20489;-85
2022/12/01 00:39:34;;;;;;;0.00;0.00;;;;;;;;;;5043545;28;20108;-85
2022/12/01 00:42:00;;;;;;;0.00;0.00;;;;;;;;;;5033434;28;20083;-82
2022/12/01 00:44:26;;;;;;;0.00;0.00;;;;;;;;;;5032998;28;20033;-84
2022/12/01 00:46:52;;;;;;;0.00;0.00;;;;;;;;;;5017374;28;20435;-84
2022/12/01 00:49:19;;;;;;;0.00;0.00;;;;;;;;;;5036501;28;20057;-80
2022/12/01 00:51:45;;;;;;;0.00;0.00;;;;;;;;;;5018094;28;20034;-83
2022/12/01 00:54:11;;;;;;;0.00;0.00;;;;;;;;;;5051820;28;20107;-82
2022/12/01 00:56:38;;;;;;;0.00;0.00;;;;;;;;;;5018446;28;20116;-82
2022/12/01 00:59:04;;;;;;;0.00;0.00;;;;;;;;;;5036641;28;20043;-83
2022/12/01 01:01:31;;;;;;;0.00;0.00;;;;;;;;;;5033599;28;20056;-82
2022/12/01 01:03:57;;;;;;;0.00;0.00;;;;;;;;;;5034470;28;20056;-77
2022/12/01 01:06:24;;;;;;;0.00;0.00;;;;;;;;;;5042864;28;20056;-83
2022/12/01 01:08:50;;;;;;;0.00;0.00;;;;;;;;;;5031591;28;20110;-80
2022/12/01 01:11:16;;;;;;;0.00;0.00;;;;;;;;;;5036884;28;20087;-82
2022/12/01 01:13:43;;;;;;;0.00;0.00;;;;;;;;;;5043400;28;20034;-81
2022/12/01 01:16:29;;;;;;;0.00;0.00;;;;;;;;;;5036778;28;20030;-82
2022/12/01 01:18:57;;;;;;;0.00;0.00;;;;;;;;;;5029407;28;20032;-83
2022/12/01 01:21:24;;;;;;;0.00;0.00;;;;;;;;;;5028051;28;20032;-84
2022/12/01 01:23:51;;;;;;;0.00;0.00;;;;;;;;;;5035925;28;20040;-80
2022/12/01 01:26:22;;;;;;;0.00;0.00;;;;;;;;;;5017441;28;20040;-84
2022/12/01 01:28:49;;;;;;;0.00;0.00;;;;;;;;;;5053679;28;20379;-83
2022/12/01 01:31:18;;;;;;;0.00;0.00;;;;;;;;;;5042920;28;20034;-84
2022/12/01 01:33:44;;;;;;;0.00;0.00;;;;;;;;;;5022766;28;20243;-87
2022/12/01 01:36:10;;;;;;;0.00;0.00;;;;;;;;;;5018191;28;20388;-82
2022/12/01 01:38:37;;;;;;;0.00;0.00;;;;;;;;;;5054171;28;20455;-83
2022/12/01 01:41:05;;;;;;;0.00;0.00;;;;;;;;;;5037649;28;20033;-79
2022/12/01 01:43:43;;;;;;;0.00;0.00;;;;;;;;;;5017313;28;20052;-81
2022/12/01 01:46:11;;;;;;;0.00;0.00;;;;;;;;;;5038268;28;20029;-82
2022/12/01 01:48:38;;;;;;;0.00;0.00;;;;;;;;;;5046127;28;20025;-82
2022/12/01 01:51:05;;;;;;;0.00;0.00;;;;;;;;;;5038395;28;20459;-83
2022/12/01 01:53:31;;;;;;;0.00;0.00;;;;;;;;;;5033545;28;20124;-84
2022/12/01 01:55:58;;;;;;;0.00;0.00;;;;;;;;;;5039271;28;20124;-81
2022/12/01 01:58:25;;;;;;;0.00;0.00;;;;;;;;;;5048252;28;20029;-78
2022/12/01 02:00:52;;;;;;;0.00;0.00;;;;;;;;;;5046444;28;20057;-80
2022/12/01 02:03:18;;;;;;;0.00;0.00;;;;;;;;;;5042026;28;20075;-79
2022/12/01 02:05:45;;;;;;;0.00;0.00;;;;;;;;;;5043978;28;20052;-81
2022/12/01 02:08:12;;;;;;;0.00;0.00;;;;;;;;;;5044777;28;20048;-79
2022/12/01 02:10:47;;;;;;;0.00;0.00;;;;;;;;;;5051190;28;20056;-81
2022/12/01 02:13:29;;;;;;;0.00;0.00;;;;;;;;;;5023043;28;20077;-79
2022/12/01 02:16:06;;;;;;;0.00;0.00;;;;;;;;;;5042745;28;20030;-90
2022/12/01 02:19:08;;;;;;;0.00;0.00;;;;;;;;;;5023700;28;20026;-82
2022/12/01 02:21:45;;;;;;;0.00;0.00;;;;;;;;;;4946259;29;20497;-82
2022/12/01 02:24:29;;;;;;;0.00;0.00;;;;;;;;;;5029248;28;20107;-82
2022/12/01 02:26:59;;;;;;;0.00;0.00;;;;;;;;;;5027979;28;20087;-76
2022/12/01 02:29:28;;;;;;;0.00;0.00;;;;;;;;;;5058668;28;20096;-79
2022/12/01 02:31:58;;;;;;;0.00;0.00;;;;;;;;;;5050368;28;20127;-82
2022/12/01 02:34:37;;;;;;;0.00;0.00;;;;;;;;;;5055717;28;20056;-82
2022/12/01 02:37:04;;;;;;;0.00;0.00;;;;;;;;;;5025388;28;20119;-83
2022/12/01 02:39:36;;;;;;;0.00;0.00;;;;;;;;;;5037356;28;20041;-86
2022/12/01 02:42:47;;;;;;;0.00;0.00;;;;;;;;;;5021987;28;20123;-76
2022/12/01 02:45:01;;;;;;;0.00;0.00;;;;;;;;;;5039338;28;20059;-80
2022/12/01 02:47:28;;;;;;;0.00;0.00;;;;;;;;;;5038723;28;20094;-83
2022/12/01 02:49:56;;;;;;;0.00;0.00;;;;;;;;;;5038039;28;20104;-80
2022/12/01 02:52:23;;;;;;;0.00;0.00;;;;;;;;;;5021323;28;20021;-82
2022/12/01 02:54:50;;;;;;;0.00;0.00;;;;;;;;;;5042355;28;20025;-82
2022/12/01 02:57:16;;;;;;;0.00;0.00;;;;;;;;;;5037504;28;20096;-83
2022/12/01 02:59:44;;;;;;;0.00;0.00;;;;;;;;;;5020724;28;20114;-81
2022/12/01 03:02:10;;;;;;;0.00;0.00;;;;;;;;;;5018708;28;20537;-83
2022/12/01 03:04:50;;;;;;;0.00;0.00;;;;;;;;;;5053910;28;20048;-83
2022/12/01 03:07:16;;;;;;;0.00;0.00;;;;;;;;;;5056600;28;20029;-89
2022/12/01 03:09:51;;;;;;;0.00;0.00;;;;;;;;;;5061926;28;20027;-88
2022/12/01 03:12:17;;;;;;;0.00;0.00;;;;;;;;;;5058143;28;20379;-88
2022/12/01 03:14:44;;;;;;;0.00;0.00;;;;;;;;;;5066099;28;20029;-86
2022/12/01 03:17:14;;;;;;;0.00;0.00;;;;;;;;;;5058906;28;20032;-87
2022/12/01 03:19:59;;;;;;;0.00;0.00;;;;;;;;;;5064697;28;20017;-87
2022/12/01 03:22:28;;;;;;;0.00;0.00;;;;;;;;;;5062296;28;20013;-88
2022/12/01 03:24:58;;;;;;;0.00;0.00;;;;;;;;;;5056465;28;20087;-89
2022/12/01 03:27:27;;;;;;;0.00;0.00;;;;;;;;;;5060649;28;20024;-83
2022/12/01 03:29:55;;;;;;;0.00;0.00;;;;;;;;;;5061552;28;20025;-88
2022/12/01 03:32:22;;;;;;;0.00;0.00;;;;;;;;;;5057490;28;20032;-87
2022/12/01 03:35:07;;;;;;;0.00;0.00;;;;;;;;;;5058916;28;20096;-88
2022/12/01 03:37:41;;;;;;;0.00;0.00;;;;;;;;;;5080234;28;20051;-90
2022/12/01 03:40:11;;;;;;;0.00;0.00;;;;;;;;;;5066299;28;20048;-89
2022/12/01 03:42:39;;;;;;;0.00;0.00;;;;;;;;;;5060737;28;20020;-88
2022/12/01 03:45:07;;;;;;;0.00;0.00;;;;;;;;;;5062401;28;20025;-89
2022/12/01 03:47:36;;;;;;;0.00;0.00;;;;;;;;;;5062820;28;20063;-87
2022/12/01 03:50:03;;;;;;;0.00;0.00;;;;;;;;;;5053436;28;20102;-86
2022/12/01 03:52:48;;;;;;;0.00;0.00;;;;;;;;;;5059922;28;20027;-88
2022/12/01 03:55:15;;;;;;;0.00;0.00;;;;;;;;;;5058637;28;20092;-87
2022/12/01 03:58:01;;;;;;;0.00;0.00;;;;;;;;;;5061277;28;20028;-87
2022/12/01 04:00:28;;;;;;;0.00;0.00;;;;;;;;;;5063578;28;20028;-87
2022/12/01 04:02:55;;;;;;;0.00;0.00;;;;;;;;;;5061362;28;20048;-87
2022/12/01 04:05:24;;;;;;;0.00;0.00;;;;;;;;;;5027613;28;20029;-89
2022/12/01 04:08:35;;;;;;;0.00;0.00;;;;;;;;;;5048223;28;20029;-90
2022/12/01 04:12:28;;;;;;;0.00;0.00;;;;;;;;;;4992067;28;20041;-86
2022/12/01 04:13:48;;;;;;;0.00;0.00;;;;;;;;;;5039668;28;20025;-84
2022/12/01 04:16:14;;;;;;;0.00;0.00;;;;;;;;;;5025253;28;20036;-88
2022/12/01 04:29:15;;;;;;;0.00;0.00;;;;;;;;;;4789418;26;20052;-93
2022/12/01 04:31:50;;;;;;;0.00;0.00;;;;;;;;;;5057506;28;20079;-92
2022/12/01 04:34:46;;;;;;;0.00;0.00;;;;;;;;;;5057997;28;20041;-92
2022/12/01 04:37:16;;;;;;;0.00;0.00;;;;;;;;;;5054068;28;20037;-91
2022/12/01 04:39:49;;;;;;;0.00;0.00;;;;;;;;;;5072280;28;20029;-90
2022/12/01 04:45:11;;;;;;;0.00;0.00;;;;;;;;;;5028653;28;20175;-90
2022/12/01 04:47:44;;;;;;;0.00;0.00;;;;;;;;;;5037041;28;20029;-89
2022/12/01 04:50:10;;;;;;;0.00;0.00;;;;;;;;;;5052797;28;20029;-88
2022/12/01 04:52:37;;;;;;;0.00;0.00;;;;;;;;;;5064624;28;20009;-84
2022/12/01 04:55:03;;;;;;;0.00;0.00;;;;;;;;;;5050735;28;20029;-89
2022/12/01 04:57:30;;;;;;;0.00;0.00;;;;;;;;;;5059429;28;20033;-86
2022/12/01 04:59:56;;;;;;;0.00;0.00;;;;;;;;;;5060791;28;20025;-88
2022/12/01 05:02:23;;;;;;;0.00;0.00;;;;;;;;;;5078858;28;20048;-88
2022/12/01 05:04:49;;;;;;;0.00;0.00;;;;;;;;;;5070169;28;20029;-87
2022/12/01 05:07:16;;;;;;;0.00;0.00;;;;;;;;;;5050546;28;20032;-86
2022/12/01 05:09:45;;;;;;;0.00;0.00;;;;;;;;;;5067565;28;20124;-86
2022/12/01 05:12:11;;;;;;;0.00;0.00;;;;;;;;;;5053960;28;20051;-88
2022/12/01 05:14:38;;;;;;;0.00;0.00;;;;;;;;;;5066506;28;20031;-86
2022/12/01 05:17:04;;;;;;;0.00;0.00;;;;;;;;;;5063027;28;20029;-86
2022/12/01 05:22:15;;;;;;;0.00;0.00;;;;;;;;;;5051890;28;20076;-89
2022/12/01 05:24:41;;;;;;;0.00;0.00;;;;;;;;;;5040066;28;20060;-88
2022/12/01 05:27:08;;;;;;;0.00;0.00;;;;;;;;;;5052682;28;20029;-84
2022/12/01 05:29:34;;;;;;;0.00;0.00;;;;;;;;;;5042442;28;20103;-86
2022/12/01 05:32:01;;;;;;;0.00;0.00;;;;;;;;;;5032604;28;20065;-86
2022/12/01 05:34:28;;;;;;;0.00;0.00;;;;;;;;;;5027054;28;20033;-85
2022/12/01 05:36:54;;;;;;;0.00;0.00;;;;;;;;;;5046560;28;20049;-83
2022/12/01 05:39:41;;;;;;;0.00;0.00;;;;;;;;;;5038255;28;20093;-83
2022/12/01 05:42:08;;;;;;;0.00;0.00;;;;;;;;;;5038894;28;20119;-88
2022/12/01 05:44:34;;;;;;;0.00;0.00;;;;;;;;;;5046871;28;20056;-85
2022/12/01 05:47:03;;;;;;;0.00;0.00;;;;;;;;;;5034569;28;20033;-85
2022/12/01 05:49:30;;;;;;;0.00;0.00;;;;;;;;;;5035104;28;20033;-85
2022/12/01 05:51:56;;;;;;;0.00;0.00;;;;;;;;;;5048556;28;20414;-85
2022/12/01 05:54:22;;;;;;;0.00;0.00;;;;;;;;;;5026443;28;20021;-84
2022/12/01 05:56:49;;;;;;;0.00;0.00;;;;;;;;;;5045909;28;20044;-84
2022/12/01 05:59:15;;;;;;;0.00;0.00;;;;;;;;;;5047632;28;20052;-84
2022/12/01 06:01:41;;;;;;;0.00;0.00;;;;;;;;;;5046325;28;20030;-83
2022/12/01 06:04:08;;;;;;;0.00;0.00;;;;;;;;;;5042160;28;20045;-84
2022/12/01 06:06:34;;;;;;;0.00;0.00;;;;;;;;;;5026453;28;20025;-82
2022/12/01 06:09:00;;;;;;;0.00;0.00;;;;;;;;;;5042733;28;20021;-82
2022/12/01 06:11:27;;;;;;;0.00;0.00;;;;;;;;;;5044505;28;20021;-82
2022/12/01 06:13:53;;;;;;;0.00;0.00;;;;;;;;;;5049401;28;20029;-81
2022/12/01 06:16:19;;;;;;;0.00;0.00;;;;;;;;;;5045039;28;20029;-81
2022/12/01 06:18:46;;;;;;;0.00;0.00;;;;;;;;;;5028600;28;20026;-83
2022/12/01 06:21:12;;;;;;;0.00;0.00;;;;;;;;;;5039626;28;20029;-82
2022/12/01 06:23:38;;;;;;;0.00;0.00;;;;;;;;;;5049354;28;20032;-81
2022/12/01 06:26:05;;;;;;;0.00;0.00;;;;;;;;;;5034539;28;20047;-80
2022/12/01 06:28:34;;;;;;;0.00;0.00;;;;;;;;;;5053782;28;20076;-80
2022/12/01 06:31:00;;;;;;;0.00;0.00;;;;;;;;;;5049753;28;20021;-78
2022/12/01 06:33:27;;;;;;;0.00;0.00;;;;;;;;;;5036660;28;20059;-81
2022/12/01 06:35:57;;;;;;;0.00;0.00;;;;;;;;;;5061695;28;20044;-85
2022/12/01 06:38:24;;;;;;;0.00;0.00;;;;;;;;;;5040857;28;20415;-83
2022/12/01 06:41:18;;;;;;;0.00;0.00;;;;;;;;;;5046705;28;20139;-87
2022/12/01 06:43:47;;;;;;;0.00;0.00;;;;;;;;;;5044528;28;20033;-86
2022/12/01 06:46:14;;;;;;;0.00;0.00;;;;;;;;;;5030424;28;20037;-80
2022/12/01 06:48:40;;;;;;;0.00;0.00;;;;;;;;;;5044560;28;20039;-82
2022/12/01 06:51:07;;;;;;;0.00;0.00;;;;;;;;;;5025643;28;20479;-82
2022/12/01 06:53:36;;;;;;;0.00;0.00;;;;;;;;;;5024898;28;20037;-82
2022/12/01 06:56:04;;;;;;;0.00;0.00;;;;;;;;;;5029306;28;20025;-79
2022/12/01 06:58:30;;;;;;;0.00;0.00;;;;;;;;;;5043375;28;20067;-79
2022/12/01 07:00:59;;;;;;;0.00;0.00;;;;;;;;;;5027369;28;20492;-78
2022/12/01 07:03:26;;;;;;;0.00;0.00;;;;;;;;;;5043899;28;20056;-81
2022/12/01 07:06:08;;;;;;;0.00;0.00;;;;;;;;;;5029803;28;20032;-86
2022/12/01 07:08:35;;;;;;;0.00;0.00;;;;;;;;;;5040789;28;20045;-82
2022/12/01 07:11:03;;;;;;;0.00;0.00;;;;;;;;;;5025124;28;20048;-84
2022/12/01 07:13:29;;;;;;;0.00;0.00;;;;;;;;;;5041792;28;20035;-83
2022/12/01 07:15:55;;;;;;;0.00;0.00;;;;;;;;;;5026981;28;20037;-81
2022/12/01 07:18:22;;;;;;;0.00;0.00;;;;;;;;;;5029096;28;20395;-81
2022/12/01 07:20:48;;;;;;;0.00;0.00;;;;;;;;;;5033459;28;20032;-83
2022/12/01 07:23:15;;;;;;;0.00;0.00;;;;;;;;;;5027413;28;20043;-83
2022/12/01 07:25:41;;;;;;;0.00;0.00;;;;;;;;;;5023284;28;20025;-82
2022/12/01 07:28:08;;;;;;;0.00;0.00;;;;;;;;;;5041208;28;20037;-83
2022/12/01 07:30:34;;;;;;;0.00;0.00;;;;;;;;;;5033615;28;20052;-82
2022/12/01 07:33:00;;;;;;;0.00;0.00;;;;;;;;;;5047941;28;20360;-82
2022/12/01 07:35:27;;;;;;;0.00;0.00;;;;;;;;;;5027023;28;20395;-85
2022/12/01 07:37:54;;;;;;;0.00;0.00;;;;;;;;;;5033988;28;20026;-83
2022/12/01 07:40:21;;;;;;;0.00;0.00;;;;;;;;;;5028952;28;20075;-82
2022/12/01 07:42:47;;;;;;;0.00;0.00;;;;;;;;;;5042340;28;20036;-83
2022/12/01 07:45:14;;;;;;;0.00;0.00;;;;;;;;;;5044654;28;20056;-87
2022/12/01 07:47:40;;;;;;;0.00;0.00;;;;;;;;;;5047720;28;20060;-82
2022/12/01 07:50:07;;;;;;;0.00;0.00;;;;;;;;;;5030738;28;20572;-79
2022/12/01 07:52:33;;;;;;;0.00;0.00;;;;;;;;;;5026129;28;20056;-79
2022/12/01 07:54:59;;;;;;;0.00;0.00;;;;;;;;;;5041969;28;20030;-84
2022/12/01 07:57:26;;;;;;;0.00;0.00;;;;;;;;;;5030655;28;20041;-82
2022/12/01 07:59:52;;;;;;;0.00;0.00;;;;;;;;;;5024237;28;20036;-81
2022/12/01 08:02:18;;;;;;;0.00;0.00;;;;;;;;;;5030707;28;20056;-85
2022/12/01 08:04:46;;;;;;;0.00;0.00;;;;;;;;;;5023161;28;20056;-84
2022/12/01 08:07:13;;;;;;;0.00;0.00;;;;;;;;;;5046404;28;20028;-83
2022/12/01 08:09:39;;;;;;;0.00;0.00;;;;;;;;;;5029226;28;20116;-86
2022/12/01 08:12:05;;;;;;;0.00;0.00;;;;;;;;;;5031833;28;20415;-85
2022/12/01 08:14:32;;;;;;;0.00;0.00;;;;;;;;;;5052672;28;20033;-85
2022/12/01 08:16:58;;;;;;;0.00;0.00;;;;;;;;;;5036035;28;20029;-84
2022/12/01 08:19:26;;;;;;;0.00;0.00;;;;;;;;;;5036282;28;20087;-82
2022/12/01 08:21:52;;;;;;;0.00;0.00;;;;;;;;;;5026447;28;20029;-80
2022/12/01 08:24:34;;;;;;;0.00;0.00;;;;;;;;;;5040186;28;20173;-82
2022/12/01 08:27:00;;;;;;;0.00;0.00;;;;;;;;;;5027120;28;20025;-84
2022/12/01 08:29:28;;;;;;;0.00;0.00;;;;;;;;;;5024086;28;20483;-79
2022/12/01 08:31:57;;;;;;;0.00;0.00;;;;;;;;;;5047154;28;20036;-84
2022/12/01 08:34:23;;;;;;;0.00;0.00;;;;;;;;;;5048720;28;20017;-81
2022/12/01 08:36:49;;;;;;;0.00;0.00;;;;;;;;;;5046280;28;21594;-85
2022/12/01 08:39:16;;;;;;;0.00;0.00;;;;;;;;;;5048162;28;20017;-81
2022/12/01 08:41:42;;;;;;;0.00;0.00;;;;;;;;;;5055110;28;20021;-83
2022/12/01 08:44:09;;;;;;;0.00;0.00;;;;;;;;;;5029066;28;20065;-81
2022/12/01 08:46:39;;;;;;;0.00;0.00;;;;;;;;;;5043123;28;20033;-81
2022/12/01 08:49:06;;;;;;;0.00;0.00;;;;;;;;;;5039223;28;20033;-79
2022/12/01 08:51:32;;;;;;;0.00;0.00;;;;;;;;;;5023783;28;20025;-79
2022/12/01 08:53:59;;;;;;;0.00;0.00;;;;;;;;;;5043925;28;20037;-81
2022/12/01 08:56:31;;;;;;;0.00;0.00;;;;;;;;;;5046650;28;20028;-81
2022/12/01 08:58:57;;;;;;;0.00;0.00;;;;;;;;;;5027706;28;20028;-81
2022/12/01 09:01:24;;;;;;;0.00;0.00;;;;;;;;;;5032563;28;20024;-82
2022/12/01 09:04:04;;;;;;;0.00;0.00;;;;;;;;;;5049055;28;20115;-79
2022/12/01 09:06:31;;;;;;;0.00;0.00;;;;;;;;;;5027748;28;20086;-81
2022/12/01 09:09:01;;;;;;;0.00;0.00;;;;;;;;;;5031634;28;20045;-81
2022/12/01 09:11:27;;;;;;;0.00;0.00;;;;;;;;;;5029032;28;20475;-81
2022/12/01 09:13:54;;;;;;;0.00;0.00;;;;;;;;;;5039209;28;20029;-81
2022/12/01 09:16:20;;;;;;;0.00;0.00;;;;;;;;;;5047126;28;20033;-80
2022/12/01 09:18:47;;;;;;;0.00;0.00;;;;;;;;;;5041824;28;20032;-79
2022/12/01 09:21:15;;;;;;;0.00;0.00;;;;;;;;;;5026779;28;20032;-83
2022/12/01 09:24:13;;;;;;;0.00;0.00;;;;;;;;;;5029611;28;20032;-80
2022/12/01 09:26:39;;;;;;;0.00;0.00;;;;;;;;;;5026816;28;20036;-81
2022/12/01 09:29:07;;;;;;;0.00;0.00;;;;;;;;;;5029957;28;20057;-80
2022/12/01 09:31:34;;;;;;;0.00;0.00;;;;;;;;;;5038853;28;20084;-79
2022/12/01 09:34:07;;;;;;;0.00;0.00;;;;;;;;;;5032964;28;20113;-84
2022/12/01 09:36:35;;;;;;;0.00;0.00;;;;;;;;;;5003029;28;20037;-79
2022/12/01 09:39:01;;;;;;;0.00;0.00;;;;;;;;;;5012985;28;20459;-80
2022/12/01 09:41:31;;;;;;;0.00;0.00;;;;;;;;;;5011659;28;20056;-81
2022/12/01 09:44:01;;;;;;;0.00;0.00;;;;;;;;;;5007928;28;20057;-82
2022/12/01 09:46:32;;;;;;;0.00;0.00;;;;;;;;;;5015821;28;20038;-83
2022/12/01 09:49:01;;;;;;;0.00;0.00;;;;;;;;;;5012365;28;20029;-80
2022/12/01 09:51:28;;;;;;;0.00;0.00;;;;;;;;;;5002974;28;20033;-86
2022/12/01 09:53:56;;;;;;;0.00;0.00;;;;;;;;;;5011993;28;20147;-80
2022/12/01 09:56:24;;;;;;;0.00;0.00;;;;;;;;;;5002298;28;20100;-82
2022/12/01 09:58:59;;;;;;;0.00;0.00;;;;;;;;;;5016382;28;20053;-81
2022/12/01 10:01:44;;;;;;;0.00;0.00;;;;;;;;;;4992955;28;20044;-79
2022/12/01 10:04:20;;;;;;;0.00;0.00;;;;;;;;;;5014346;28;20613;-77
2022/12/01 10:07:09;;;;;;;0.00;0.00;;;;;;;;;;4994950;28;20033;-78
2022/12/01 10:09:39;;;;;;;0.00;0.00;;;;;;;;;;4994785;28;20030;-79
2022/12/01 10:12:15;;;;;;;0.00;0.00;;;;;;;;;;5018206;28;20044;-80
2022/12/01 10:14:43;;;;;;;0.00;0.00;;;;;;;;;;5011883;28;20037;-79
2022/12/01 10:17:16;;;;;;;0.00;0.00;;;;;;;;;;5012724;28;20108;-78
2022/12/01 10:19:49;;;;;;;0.00;0.00;;;;;;;;;;5000788;28;20032;-80
2022/12/01 10:22:24;;;;;;;0.00;0.00;;;;;;;;;;5022978;28;20708;-80
2022/12/01 10:25:02;;;;;;;0.00;0.00;;;;;;;;;;5020022;28;20034;-80
2022/12/01 10:27:47;;;;;;;0.00;0.00;;;;;;;;;;5023563;28;20480;-79
2022/12/01 10:30:17;;;;;;;0.00;0.00;;;;;;;;;;5034191;28;20025;-80
2022/12/01 10:32:53;;;;;;;0.00;0.00;;;;;;;;;;5036362;28;20025;-81
2022/12/01 10:35:22;;;;;;;0.00;0.00;;;;;;;;;;5049615;28;20052;-82
2022/12/01 10:37:51;;;;;;;0.00;0.00;;;;;;;;;;5048093;28;20045;-80
2022/12/01 10:40:18;;;;;;;0.00;0.00;;;;;;;;;;5043969;28;20490;-81
2022/12/01 10:42:45;;;;;;;0.00;0.00;;;;;;;;;;5030953;28;20130;-81
2022/12/01 10:45:16;;;;;;;0.00;0.00;;;;;;;;;;5031110;28;20101;-81
2022/12/01 10:48:01;;;;;;;0.00;0.00;;;;;;;;;;5023969;28;20037;-82
2022/12/01 10:50:28;;;;;;;0.00;0.00;;;;;;;;;;5022461;28;20716;-82
2022/12/01 10:52:54;;;;;;;0.00;0.00;;;;;;;;;;5030300;28;20471;-84
2022/12/01 10:55:26;;;;;;;0.00;0.00;;;;;;;;;;5022958;28;20025;-83
2022/12/01 10:57:54;;;;;;;0.00;0.00;;;;;;;;;;5041645;28;20037;-82
2022/12/01 11:00:21;;;;;;;0.00;0.00;;;;;;;;;;5022893;28;20033;-84
2022/12/01 11:02:48;;;;;;;0.00;0.00;;;;;;;;;;5045359;28;20033;-84
2022/12/01 11:05:30;;;;;;;0.00;0.00;;;;;;;;;;5039563;28;20021;-81
2022/12/01 11:07:57;;;;;;;0.00;0.00;;;;;;;;;;5027161;28;20036;-78
2022/12/01 11:10:25;;;;;;;0.00;0.00;;;;;;;;;;5035463;28;20586;-80
2022/12/01 11:13:06;;;;;;;0.00;0.00;;;;;;;;;;5041182;28;20115;-78
2022/12/01 11:15:37;;;;;;;0.00;0.00;;;;;;;;;;5041264;28;20029;-79
2022/12/01 11:18:19;;;;;;;0.00;0.00;;;;;;;;;;5025536;28;20032;-79
2022/12/01 11:20:48;;;;;;;0.00;0.00;;;;;;;;;;5046964;28;20029;-79
2022/12/01 11:23:17;;;;;;;0.00;0.00;;;;;;;;;;5049814;28;20037;-79
2022/12/01 11:25:56;;;;;;;0.00;0.00;;;;;;;;;;5043516;28;20029;-79
2022/12/01 11:28:22;;;;;;;0.00;0.00;;;;;;;;;;5016247;28;20088;-76
2022/12/01 11:30:55;;;;;;;0.00;0.00;;;;;;;;;;5023448;28;20057;-81
2022/12/01 11:33:41;;;;;;;0.00;0.00;;;;;;;;;;5050727;28;20021;-79
2022/12/01 11:36:08;;;;;;;0.00;0.00;;;;;;;;;;5028580;28;20368;-80
2022/12/01 11:38:34;;;;;;;0.00;0.00;;;;;;;;;;5030123;28;20429;-82
2022/12/01 11:41:00;;;;;;;0.00;0.00;;;;;;;;;;5030671;28;20025;-83
2022/12/01 11:43:27;;;;;;;0.00;0.00;;;;;;;;;;5031865;28;20112;-80
2022/12/01 11:45:54;;;;;;;0.00;0.00;;;;;;;;;;5036404;28;20035;-82
2022/12/01 11:48:20;;;;;;;0.00;0.00;;;;;;;;;;5044545;28;20025;-81
2022/12/01 11:51:02;;;;;;;0.00;0.00;;;;;;;;;;5044052;28;20057;-80
2022/12/01 11:53:30;;;;;;;0.00;0.00;;;;;;;;;;5033142;28;20127;-84
2022/12/01 11:56:16;;;;;;;0.00;0.00;;;;;;;;;;5023007;28;20112;-84
2022/12/01 11:58:43;;;;;;;0.00;0.00;;;;;;;;;;5011449;28;20037;-81
2022/12/01 12:01:16;;;;;;;0.00;0.00;;;;;;;;;;5026186;28;20483;-83
2022/12/01 12:04:21;;;;;;;0.00;0.00;;;;;;;;;;5042017;28;20120;-82
2022/12/01 12:06:47;;;;;;;0.00;0.00;;;;;;;;;;4963898;28;20028;-84
2022/12/01 12:09:25;;;;;;;0.00;0.00;;;;;;;;;;4944501;28;20618;-80
2022/12/01 12:11:52;;;;;;;0.00;0.00;;;;;;;;;;4996695;28;20098;-80
2022/12/01 12:14:21;;;;;;;0.00;0.00;;;;;;;;;;5028872;28;20671;-80
2022/12/01 12:16:47;;;;;;;0.00;0.00;;;;;;;;;;5025824;28;20097;-79
2022/12/01 12:19:41;;;;;;;0.00;0.00;;;;;;;;;;5037449;28;20056;-79
2022/12/01 12:22:11;;;;;;;0.00;0.00;;;;;;;;;;5042027;28;20625;-80
2022/12/01 12:24:56;;;;;;;0.00;0.00;;;;;;;;;;5040395;28;20637;-80
2022/12/01 12:27:41;;;;;;;0.00;0.00;;;;;;;;;;5024665;28;20029;-80
2022/12/01 12:30:28;;;;;;;0.00;0.00;;;;;;;;;;5026783;28;20437;-80
2022/12/01 12:33:01;;;;;;;0.00;0.00;;;;;;;;;;5039418;28;20025;-80
2022/12/01 12:35:45;;;;;;;0.00;0.00;;;;;;;;;;5036623;28;20022;-80
2022/12/01 12:38:24;;;;;;;0.00;0.00;;;;;;;;;;5047900;28;20033;-80
2022/12/01 12:40:55;;;;;;;0.00;0.00;;;;;;;;;;5023922;28;20033;-80
2022/12/01 12:43:29;;;;;;;0.00;0.00;;;;;;;;;;5033926;28;20033;-80
2022/12/01 12:45:55;;;;;;;0.00;0.00;;;;;;;;;;5036729;28;20502;-80
2022/12/01 12:48:37;;;;;;;0.00;0.00;;;;;;;;;;5048299;28;20029;-79
2022/12/01 12:51:09;;;;;;;0.00;0.00;;;;;;;;;;5033054;28;20025;-79
2022/12/01 12:53:40;;;;;;;0.00;0.00;;;;;;;;;;5044990;28;20104;-80
2022/12/01 12:56:09;;;;;;;0.00;0.00;;;;;;;;;;5060063;28;20024;-80
2022/12/01 12:58:46;;;;;;;0.00;0.00;;;;;;;;;;5033857;28;20078;-79
2022/12/01 13:01:26;;;;;;;0.00;0.00;;;;;;;;;;5030424;28;20026;-78
2022/12/01 13:03:58;;;;;;;0.00;0.00;;;;;;;;;;5030934;28;20040;-77
2022/12/01 13:06:25;;;;;;;0.00;0.00;;;;;;;;;;5035714;28;20394;-78
2022/12/01 13:09:12;;;;;;;0.00;0.00;;;;;;;;;;5031876;28;20024;-79
2022/12/01 13:11:44;;;;;;;0.00;0.00;;;;;;;;;;5037743;28;20052;-79
2022/12/01 13:14:30;;;;;;;0.00;0.00;;;;;;;;;;5034145;28;20056;-80
2022/12/01 13:17:05;;;;;;;0.00;0.00;;;;;;;;;;5032999;28;20057;-79
2022/12/01 13:19:34;;;;;;;0.00;0.00;;;;;;;;;;5049353;28;20037;-79
2022/12/01 13:22:01;;;;;;;0.00;0.00;;;;;;;;;;5037955;28;20037;-79
2022/12/01 13:24:29;;;;;;;0.00;0.00;;;;;;;;;;5024231;28;20459;-80
2022/12/01 13:27:04;;;;;;;0.00;0.00;;;;;;;;;;5053219;28;20029;-80
2022/12/01 13:29:34;;;;;;;0.00;0.00;;;;;;;;;;5018924;28;20049;-80
2022/12/01 13:32:01;;;;;;;0.00;0.00;;;;;;;;;;5017654;28;20039;-80
2022/12/01 13:34:34;;;;;;;0.00;0.00;;;;;;;;;;5017351;28;20454;-80
2022/12/01 13:37:00;;;;;;;0.00;0.00;;;;;;;;;;5017469;28;20030;-80
2022/12/01 13:39:28;;;;;;;0.00;0.00;;;;;;;;;;5017428;28;20033;-80
2022/12/01 13:41:59;;;;;;;0.00;0.00;;;;;;;;;;5035076;28;20066;-79
2022/12/01 13:44:28;;;;;;;0.00;0.00;;;;;;;;;;5017342;28;20037;-79
2022/12/01 13:46:57;;;;;;;0.00;0.00;;;;;;;;;;5035552;28;20052;-79
2022/12/01 13:49:38;;;;;;;0.00;0.00;;;;;;;;;;5035131;28;20029;-80
2022/12/01 13:52:26;;;;;;;0.00;0.00;;;;;;;;;;5034868;28;20017;-80
2022/12/01 13:55:01;;;;;;;0.00;0.00;;;;;;;;;;5017785;28;20025;-82
2022/12/01 13:57:29;;;;;;;0.00;0.00;;;;;;;;;;5035020;28;20057;-80
2022/12/01 13:59:58;;;;;;;0.00;0.00;;;;;;;;;;5017360;28;20065;-80
2022/12/01 14:02:34;;;;;;;0.00;0.00;;;;;;;;;;5017130;28;20030;-81
2022/12/01 14:05:19;;;;;;;0.00;0.00;;;;;;;;;;5016949;28;20040;-80
2022/12/01 14:07:46;;;;;;;0.00;0.00;;;;;;;;;;5017075;28;20025;-80
2022/12/01 14:10:21;;;;;;;0.00;0.00;;;;;;;;;;5016924;28;20476;-80
2022/12/01 14:12:48;;;;;;;0.00;0.00;;;;;;;;;;5026808;28;20040;-80
2022/12/01 14:15:35;;;;;;;0.00;0.00;;;;;;;;;;5036565;28;20108;-80
2022/12/01 14:18:19;;;;;;;0.00;0.00;;;;;;;;;;5054428;28;20039;-81
2022/12/01 14:20:47;;;;;;;0.00;0.00;;;;;;;;;;5016169;28;20083;-80
2022/12/01 14:23:24;;;;;;;0.00;0.00;;;;;;;;;;5007608;28;20067;-80
2022/12/01 14:25:58;;;;;;;0.00;0.00;;;;;;;;;;5032491;28;20068;-81
2022/12/01 14:28:44;;;;;;;0.00;0.00;;;;;;;;;;5010623;28;20038;-80
2022/12/01 14:31:11;;;;;;;0.00;0.00;;;;;;;;;;4984022;28;20036;-81
2022/12/01 14:33:52;;;;;;;0.00;0.00;;;;;;;;;;5014716;28;20022;-80
2022/12/01 14:36:34;;;;;;;0.00;0.00;;;;;;;;;;5001819;28;20037;-79
2022/12/01 14:39:03;;;;;;;0.00;0.00;;;;;;;;;;5007687;28;20057;-80
2022/12/01 14:41:39;;;;;;;0.00;0.00;;;;;;;;;;5017414;28;20045;-80
2022/12/01 14:44:09;;;;;;;0.00;0.00;;;;;;;;;;5009214;28;20026;-80
2022/12/01 14:46:42;;;;;;;0.00;0.00;;;;;;;;;;4993740;28;20049;-81
2022/12/01 14:49:11;;;;;;;0.00;0.00;;;;;;;;;;5011514;28;20073;-81
2022/12/01 14:51:41;;;;;;;0.00;0.00;;;;;;;;;;5016284;28;20037;-82
2022/12/01 14:54:10;;;;;;;0.00;0.00;;;;;;;;;;5016913;28;20061;-83
2022/12/01 14:56:37;;;;;;;0.00;0.00;;;;;;;;;;4999187;28;20379;-83
2022/12/01 14:59:13;;;;;;;0.00;0.00;;;;;;;;;;5016586;28;20083;-80
2022/12/01 15:01:40;;;;;;;0.00;0.00;;;;;;;;;;5006838;28;20029;-83
2022/12/01 15:04:07;;;;;;;0.00;0.00;;;;;;;;;;5014255;28;20041;-85
2022/12/01 15:06:55;;;;;;;0.00;0.00;;;;;;;;;;5012038;28;20242;-80
2022/12/01 15:09:22;;;;;;;0.00;0.00;;;;;;;;;;5010617;28;20030;-76
2022/12/01 15:11:51;;;;;;;0.00;0.00;;;;;;;;;;5027778;28;20471;-81
2022/12/01 15:14:43;;;;;;;0.00;0.00;;;;;;;;;;5028738;28;20033;-85
2022/12/01 15:17:27;;;;;;;0.00;0.00;;;;;;;;;;5028246;28;20461;-87
2022/12/01 15:19:54;;;;;;;0.00;0.00;;;;;;;;;;4996958;28;20480;-83
2022/12/01 15:22:21;;;;;;;0.00;0.00;;;;;;;;;;5000181;28;20054;-83
2022/12/01 15:24:47;;;;;;;0.00;0.00;;;;;;;;;;5000367;28;20570;-84